createdAt,value
2018-11-29T00:00:16.433Z,93.32
2018-11-29T00:01:16.439Z,93.22
2018-11-29T00:02:16.417Z,93.53
2018-11-29T00:03:16.409Z,93.43
2018-11-29T00:04:16.389Z,93.32
2018-11-29T00:05:16.383Z,93.53
2018-11-29T00:06:16.374Z,93.43
2018-11-29T00:07:16.365Z,93.22
2018-11-29T00:08:16.347Z,93.12
2018-11-29T00:09:16.360Z,93.22
2018-11-29T00:10:16.320Z,93.53
2018-11-29T00:11:16.310Z,93.43
2018-11-29T00:12:16.307Z,93.32
2018-11-29T00:13:16.300Z,93.01
2018-11-29T00:14:16.298Z,93.12
2018-11-29T00:15:16.296Z,93.43
2018-11-29T00:16:16.275Z,93.32
2018-11-29T00:17:16.248Z,93.22
2018-11-29T00:18:17.911Z,93.32
2018-11-29T00:19:16.234Z,93.12
2018-11-29T00:20:16.226Z,93.22
2018-11-29T00:21:16.218Z,93.22
2018-11-29T00:22:16.200Z,92.70
2018-11-29T00:23:16.189Z,92.70
2018-11-29T00:24:16.174Z,92.80
2018-11-29T00:25:16.167Z,93.32
2018-11-29T00:26:16.169Z,93.32
2018-11-29T00:27:16.145Z,93.43
2018-11-29T00:28:16.136Z,92.91
2018-11-29T00:29:16.125Z,93.63
2018-11-29T00:30:16.111Z,93.78
2018-11-29T00:31:16.109Z,93.53
2018-11-29T00:32:16.109Z,93.68
2018-11-29T00:33:16.088Z,94.04
2018-11-29T00:34:16.074Z,93.68
2018-11-29T00:35:16.089Z,94.19
2018-11-29T00:36:16.047Z,93.98
2018-11-29T00:37:16.068Z,93.98
2018-11-29T00:38:16.036Z,94.09
2018-11-29T00:39:16.016Z,93.98
2018-11-29T00:40:16.040Z,94.29
2018-11-29T00:41:15.991Z,94.50
2018-11-29T00:42:15.982Z,94.29
2018-11-29T00:43:15.971Z,94.40
2018-11-29T00:44:15.957Z,94.19
2018-11-29T00:45:15.989Z,94.40
2018-11-29T00:46:15.957Z,94.40
2018-11-29T00:47:15.947Z,94.19
2018-11-29T00:48:15.928Z,93.98
2018-11-29T00:49:15.917Z,94.19
2018-11-29T00:50:15.922Z,94.19
2018-11-29T00:51:15.905Z,94.19
2018-11-29T00:52:15.879Z,94.40
2018-11-29T00:53:15.882Z,94.19
2018-11-29T00:54:15.855Z,94.19
2018-11-29T00:55:15.867Z,94.71
2018-11-29T00:56:15.851Z,94.60
2018-11-29T00:57:15.828Z,93.98
2018-11-29T00:58:15.815Z,93.88
2018-11-29T00:59:15.811Z,93.78
2018-11-29T01:00:15.801Z,94.50
2018-11-29T01:01:15.777Z,94.60
2018-11-29T01:02:15.782Z,94.19
2018-11-29T01:03:15.758Z,94.60
2018-11-29T01:04:15.744Z,94.56
2018-11-29T01:05:15.739Z,94.50
2018-11-29T01:06:15.730Z,94.71
2018-11-29T01:07:15.732Z,94.71
2018-11-29T01:08:15.724Z,94.71
2018-11-29T01:09:15.700Z,94.60
2018-11-29T01:10:15.693Z,94.92
2018-11-29T01:11:15.673Z,94.71
2018-11-29T01:12:15.677Z,94.60
2018-11-29T01:13:15.651Z,94.60
2018-11-29T01:14:15.663Z,94.71
2018-11-29T01:15:15.631Z,94.09
2018-11-29T01:16:15.618Z,94.77
2018-11-29T01:17:15.614Z,94.77
2018-11-29T01:18:15.620Z,94.67
2018-11-29T01:19:15.603Z,94.81
2018-11-29T01:20:15.580Z,94.56
2018-11-29T01:21:15.569Z,94.50
2018-11-29T01:22:15.557Z,93.84
2018-11-29T01:23:15.576Z,93.94
2018-11-29T01:24:15.557Z,94.87
2018-11-29T01:25:15.522Z,94.15
2018-11-29T01:26:15.510Z,94.15
2018-11-29T01:27:15.502Z,94.46
2018-11-29T01:28:15.498Z,94.15
2018-11-29T01:29:15.484Z,94.35
2018-11-29T01:30:15.473Z,94.04
2018-11-29T01:31:15.478Z,94.25
2018-11-29T01:32:15.452Z,94.46
2018-11-29T01:33:15.448Z,94.35
2018-11-29T01:34:15.427Z,94.67
2018-11-29T01:35:15.420Z,94.67
2018-11-29T01:36:15.401Z,94.56
2018-11-29T01:37:15.403Z,94.77
2018-11-29T01:38:15.385Z,94.67
2018-11-29T01:39:15.391Z,94.15
2018-11-29T01:40:15.360Z,94.25
2018-11-29T01:41:15.377Z,94.15
2018-11-29T01:42:15.342Z,94.25
2018-11-29T01:43:15.333Z,94.15
2018-11-29T01:44:15.324Z,94.25
2018-11-29T01:45:15.320Z,94.15
2018-11-29T01:46:15.299Z,94.04
2018-11-29T01:47:15.292Z,94.35
2018-11-29T01:48:15.274Z,93.73
2018-11-29T01:49:15.280Z,94.67
2018-11-29T01:50:15.281Z,94.56
2018-11-29T01:51:15.257Z,94.56
2018-11-29T01:52:15.237Z,94.46
2018-11-29T01:53:15.229Z,94.04
2018-11-29T01:54:15.219Z,94.04
2018-11-29T01:55:15.206Z,94.46
2018-11-29T01:56:15.195Z,93.84
2018-11-29T01:57:15.179Z,93.84
2018-11-29T01:58:15.181Z,93.84
2018-11-29T01:59:15.175Z,93.94
2018-11-29T02:00:15.144Z,93.84
2018-11-29T02:01:15.144Z,94.35
2018-11-29T02:02:15.130Z,94.15
2018-11-29T02:03:15.126Z,94.35
2018-11-29T02:04:15.131Z,94.25
2018-11-29T02:05:15.095Z,94.04
2018-11-29T02:06:15.084Z,94.25
2018-11-29T02:07:15.080Z,94.35
2018-11-29T02:08:15.074Z,94.35
2018-11-29T02:09:15.080Z,94.35
2018-11-29T02:10:15.045Z,94.15
2018-11-29T02:11:15.029Z,94.25
2018-11-29T02:12:15.016Z,94.46
2018-11-29T02:13:15.014Z,94.56
2018-11-29T02:14:15.001Z,94.25
2018-11-29T02:15:15.007Z,94.25
2018-11-29T02:16:14.982Z,94.25
2018-11-29T02:17:14.977Z,94.15
2018-11-29T02:18:14.955Z,94.19
2018-11-29T02:19:14.943Z,94.15
2018-11-29T02:20:14.947Z,94.25
2018-11-29T02:21:14.939Z,93.98
2018-11-29T02:22:14.926Z,94.25
2018-11-29T02:23:14.903Z,93.73
2018-11-29T02:24:14.895Z,94.25
2018-11-29T02:25:14.893Z,94.67
2018-11-29T02:26:14.875Z,94.77
2018-11-29T02:27:14.880Z,94.81
2018-11-29T02:28:14.853Z,94.81
2018-11-29T02:29:14.834Z,94.92
2018-11-29T02:30:14.830Z,94.56
2018-11-29T02:31:14.817Z,94.15
2018-11-29T02:32:14.815Z,94.46
2018-11-29T02:33:14.801Z,94.56
2018-11-29T02:34:14.798Z,94.77
2018-11-29T02:35:14.795Z,94.46
2018-11-29T02:36:14.772Z,94.77
2018-11-29T02:37:14.752Z,94.77
2018-11-29T02:38:14.757Z,94.56
2018-11-29T02:39:14.729Z,94.25
2018-11-29T02:40:14.747Z,94.29
2018-11-29T02:41:14.714Z,94.46
2018-11-29T02:42:14.701Z,94.71
2018-11-29T02:43:14.692Z,94.15
2018-11-29T02:44:14.675Z,93.84
2018-11-29T02:45:14.673Z,94.15
2018-11-29T02:46:14.673Z,93.84
2018-11-29T02:47:14.645Z,93.94
2018-11-29T02:48:14.638Z,93.84
2018-11-29T02:49:14.627Z,94.15
2018-11-29T02:50:14.625Z,94.15
2018-11-29T02:51:14.615Z,94.35
2018-11-29T02:52:14.595Z,94.35
2018-11-29T02:53:14.586Z,94.15
2018-11-29T02:54:14.571Z,94.04
2018-11-29T02:55:14.569Z,93.84
2018-11-29T02:56:14.566Z,93.84
2018-11-29T02:57:14.545Z,93.84
2018-11-29T02:58:14.537Z,93.94
2018-11-29T02:59:14.521Z,94.15
2018-11-29T03:00:14.533Z,93.94
2018-11-29T03:01:14.499Z,94.15
2018-11-29T03:02:14.513Z,94.31
2018-11-29T03:03:14.473Z,94.10
2018-11-29T03:04:14.460Z,94.15
2018-11-29T03:05:14.459Z,94.25
2018-11-29T03:06:14.445Z,94.25
2018-11-29T03:07:14.449Z,94.21
2018-11-29T03:08:14.432Z,94.67
2018-11-29T03:09:14.407Z,94.56
2018-11-29T03:10:14.398Z,94.67
2018-11-29T03:11:14.402Z,94.25
2018-11-29T03:12:14.389Z,94.35
2018-11-29T03:13:14.396Z,94.25
2018-11-29T03:14:14.361Z,94.62
2018-11-29T03:15:14.352Z,94.67
2018-11-29T03:16:14.333Z,94.25
2018-11-29T03:17:14.328Z,94.25
2018-11-29T03:18:14.333Z,94.56
2018-11-29T03:19:14.313Z,94.67
2018-11-29T03:20:14.300Z,94.56
2018-11-29T03:21:14.277Z,94.67
2018-11-29T03:22:14.269Z,94.52
2018-11-29T03:23:14.261Z,94.77
2018-11-29T03:24:14.275Z,94.56
2018-11-29T03:25:14.252Z,94.67
2018-11-29T03:26:14.244Z,94.67
2018-11-29T03:27:14.245Z,94.46
2018-11-29T03:28:14.227Z,94.52
2018-11-29T03:29:14.210Z,94.04
2018-11-29T03:30:14.286Z,94.42
2018-11-29T03:31:14.176Z,94.67
2018-11-29T03:32:14.170Z,94.56
2018-11-29T03:33:14.163Z,94.56
2018-11-29T03:34:14.153Z,94.25
2018-11-29T03:35:14.146Z,94.77
2018-11-29T03:36:14.131Z,94.04
2018-11-29T03:37:14.115Z,94.56
2018-11-29T03:38:14.104Z,94.35
2018-11-29T03:39:14.093Z,94.31
2018-11-29T03:40:14.101Z,94.42
2018-11-29T03:41:14.064Z,94.46
2018-11-29T03:42:14.076Z,94.77
2018-11-29T03:43:14.044Z,94.56
2018-11-29T03:44:14.031Z,94.87
2018-11-29T03:45:14.030Z,94.56
2018-11-29T03:46:14.050Z,94.15
2018-11-29T03:47:14.001Z,94.46
2018-11-29T03:48:13.997Z,94.46
2018-11-29T03:49:13.988Z,94.25
2018-11-29T03:50:13.976Z,94.35
2018-11-29T03:51:13.975Z,94.35
2018-11-29T03:52:13.959Z,94.35
2018-11-29T03:53:13.937Z,94.97
2018-11-29T03:54:13.933Z,94.67
2018-11-29T03:55:13.933Z,94.77
2018-11-29T03:56:13.906Z,94.25
2018-11-29T03:57:13.901Z,94.67
2018-11-29T03:58:13.888Z,94.77
2018-11-29T03:59:13.885Z,95.18
2018-11-29T04:00:13.885Z,94.77
2018-11-29T04:01:13.849Z,94.97
2018-11-29T04:02:13.845Z,94.97
2018-11-29T04:03:13.835Z,94.72
2018-11-29T04:04:13.830Z,94.93
2018-11-29T04:05:13.832Z,94.77
2018-11-29T04:06:13.801Z,94.77
2018-11-29T04:07:13.791Z,95.14
2018-11-29T04:08:13.781Z,94.56
2018-11-29T04:09:13.782Z,95.07
2018-11-29T04:10:13.759Z,95.03
2018-11-29T04:11:13.761Z,95.07
2018-11-29T04:12:13.741Z,94.93
2018-11-29T04:13:13.722Z,94.56
2018-11-29T04:14:13.721Z,94.87
2018-11-29T04:15:13.713Z,94.67
2018-11-29T04:16:13.708Z,94.77
2018-11-29T04:17:13.692Z,94.97
2018-11-29T04:18:13.673Z,94.87
2018-11-29T04:19:13.687Z,94.93
2018-11-29T04:20:13.665Z,94.72
2018-11-29T04:21:13.644Z,94.77
2018-11-29T04:22:13.629Z,95.34
2018-11-29T04:23:13.621Z,94.82
2018-11-29T04:24:13.614Z,94.72
2018-11-29T04:25:13.611Z,95.03
2018-11-29T04:26:13.591Z,95.14
2018-11-29T04:27:13.579Z,94.82
2018-11-29T04:28:13.560Z,94.82
2018-11-29T04:29:13.569Z,95.24
2018-11-29T04:30:13.545Z,95.34
2018-11-29T04:31:13.558Z,95.76
2018-11-29T04:32:13.563Z,94.93
2018-11-29T04:33:13.530Z,95.65
2018-11-29T04:34:13.499Z,95.34
2018-11-29T04:35:13.532Z,95.34
2018-11-29T04:36:13.500Z,95.45
2018-11-29T04:37:13.480Z,95.24
2018-11-29T04:38:13.455Z,95.55
2018-11-29T04:39:13.445Z,95.24
2018-11-29T04:40:13.443Z,95.65
2018-11-29T04:41:13.432Z,94.82
2018-11-29T04:42:13.438Z,95.65
2018-11-29T04:43:13.405Z,95.65
2018-11-29T04:44:13.408Z,95.34
2018-11-29T04:45:13.387Z,95.34
2018-11-29T04:46:13.383Z,95.45
2018-11-29T04:47:13.367Z,95.45
2018-11-29T04:48:13.354Z,95.65
2018-11-29T04:49:13.353Z,95.34
2018-11-29T04:50:13.327Z,94.82
2018-11-29T04:51:13.319Z,94.93
2018-11-29T04:52:13.314Z,94.72
2018-11-29T04:53:13.303Z,94.93
2018-11-29T04:54:13.299Z,95.03
2018-11-29T04:55:13.301Z,94.93
2018-11-29T04:56:13.261Z,94.72
2018-11-29T04:57:13.261Z,94.72
2018-11-29T04:58:13.247Z,95.03
2018-11-29T04:59:13.243Z,94.93
2018-11-29T05:00:13.228Z,94.93
2018-11-29T05:01:13.207Z,94.93
2018-11-29T05:02:13.200Z,95.03
2018-11-29T05:03:13.191Z,95.14
2018-11-29T05:04:13.190Z,94.93
2018-11-29T05:05:13.199Z,95.03
2018-11-29T05:06:13.160Z,94.82
2018-11-29T05:07:13.145Z,94.93
2018-11-29T05:08:13.132Z,94.93
2018-11-29T05:09:13.141Z,94.93
2018-11-29T05:10:13.119Z,95.03
2018-11-29T05:11:13.105Z,94.57
2018-11-29T05:12:13.097Z,94.31
2018-11-29T05:13:13.080Z,94.62
2018-11-29T05:14:13.094Z,94.42
2018-11-29T05:15:13.067Z,94.72
2018-11-29T05:16:13.047Z,94.82
2018-11-29T05:17:13.044Z,94.10
2018-11-29T05:18:13.054Z,93.96
2018-11-29T05:19:13.031Z,94.10
2018-11-29T05:20:13.011Z,94.42
2018-11-29T05:21:13.006Z,94.42
2018-11-29T05:22:12.988Z,94.72
2018-11-29T05:23:12.977Z,94.72
2018-11-29T05:24:12.981Z,94.52
2018-11-29T05:25:12.957Z,94.31
2018-11-29T05:26:12.946Z,94.42
2018-11-29T05:27:12.986Z,94.21
2018-11-29T05:28:12.944Z,94.62
2018-11-29T05:29:12.948Z,94.52
2018-11-29T05:30:12.906Z,94.52
2018-11-29T05:31:12.896Z,94.42
2018-11-29T05:32:12.888Z,94.72
2018-11-29T05:33:12.888Z,94.31
2018-11-29T05:34:12.856Z,94.42
2018-11-29T05:35:12.862Z,94.42
2018-11-29T05:36:12.836Z,94.42
2018-11-29T05:37:12.847Z,94.62
2018-11-29T05:38:12.830Z,94.52
2018-11-29T05:39:12.805Z,94.52
2018-11-29T05:40:12.800Z,94.62
2018-11-29T05:41:12.802Z,94.21
2018-11-29T05:42:12.779Z,94.72
2018-11-29T05:43:12.776Z,94.42
2018-11-29T05:44:12.757Z,94.82
2018-11-29T05:45:12.758Z,94.10
2018-11-29T05:46:12.730Z,93.69
2018-11-29T05:47:19.788Z,94.21
2018-11-29T05:48:12.712Z,93.90
2018-11-29T05:49:12.710Z,94.31
2018-11-29T05:50:12.692Z,93.90
2018-11-29T05:51:12.692Z,93.38
2018-11-29T05:52:12.662Z,94.10
2018-11-29T05:53:12.667Z,93.90
2018-11-29T05:54:12.658Z,94.42
2018-11-29T05:55:12.643Z,94.72
2018-11-29T05:56:12.622Z,94.21
2018-11-29T05:57:12.609Z,94.62
2018-11-29T05:58:12.601Z,94.31
2018-11-29T05:59:13.473Z,94.52
2018-11-29T06:00:12.586Z,94.82
2018-11-29T06:01:12.614Z,94.82
2018-11-29T06:02:12.561Z,94.42
2018-11-29T06:03:12.556Z,94.82
2018-11-29T06:04:12.557Z,94.31
2018-11-29T06:05:12.540Z,94.62
2018-11-29T06:06:12.514Z,94.72
2018-11-29T06:07:12.508Z,94.72
2018-11-29T06:08:12.509Z,94.35
2018-11-29T06:09:12.482Z,94.87
2018-11-29T06:10:12.488Z,94.46
2018-11-29T06:11:12.468Z,94.82
2018-11-29T06:12:12.472Z,94.82
2018-11-29T06:13:12.442Z,94.97
2018-11-29T06:14:12.463Z,94.46
2018-11-29T06:15:12.416Z,95.18
2018-11-29T06:16:12.447Z,94.52
2018-11-29T06:17:12.411Z,94.87
2018-11-29T06:18:12.381Z,95.18
2018-11-29T06:19:12.383Z,94.87
2018-11-29T06:20:12.368Z,95.07
2018-11-29T06:21:12.359Z,94.87
2018-11-29T06:22:12.361Z,95.07
2018-11-29T06:23:12.343Z,95.39
2018-11-29T06:24:13.647Z,95.18
2018-11-29T06:25:12.331Z,95.49
2018-11-29T06:26:12.305Z,95.49
2018-11-29T06:27:12.302Z,95.07
2018-11-29T06:28:12.290Z,95.39
2018-11-29T06:29:12.269Z,95.18
2018-11-29T06:30:12.284Z,95.39
2018-11-29T06:31:12.252Z,94.87
2018-11-29T06:32:12.241Z,95.49
2018-11-29T06:33:12.240Z,95.59
2018-11-29T06:34:12.223Z,94.97
2018-11-29T06:35:12.206Z,95.49
2018-11-29T06:36:12.204Z,95.49
2018-11-29T06:37:12.209Z,95.49
2018-11-29T06:38:12.180Z,95.18
2018-11-29T06:39:12.175Z,95.43
2018-11-29T06:40:12.155Z,95.39
2018-11-29T06:41:12.147Z,95.39
2018-11-29T06:42:12.126Z,95.02
2018-11-29T06:43:12.142Z,94.71
2018-11-29T06:44:12.121Z,95.59
2018-11-29T06:45:12.100Z,94.92
2018-11-29T06:46:12.091Z,94.81
2018-11-29T06:47:12.082Z,94.81
2018-11-29T06:48:12.092Z,95.59
2018-11-29T06:49:12.069Z,95.32
2018-11-29T06:50:12.050Z,95.12
2018-11-29T06:51:12.037Z,95.12
2018-11-29T06:52:12.037Z,95.12
2018-11-29T06:53:12.015Z,94.92
2018-11-29T06:54:12.006Z,95.12
2018-11-29T06:55:11.990Z,94.77
2018-11-29T06:56:12.002Z,95.02
2018-11-29T06:57:11.990Z,94.92
2018-11-29T06:58:11.987Z,95.12
2018-11-29T06:59:11.947Z,95.53
2018-11-29T07:00:11.937Z,94.92
2018-11-29T07:01:11.943Z,95.12
2018-11-29T07:02:11.913Z,94.81
2018-11-29T07:03:11.918Z,94.81
2018-11-29T07:04:11.897Z,94.60
2018-11-29T07:05:11.900Z,95.02
2018-11-29T07:06:11.894Z,94.81
2018-11-29T07:07:11.862Z,94.50
2018-11-29T07:08:11.854Z,94.60
2018-11-29T07:09:11.846Z,94.50
2018-11-29T07:10:11.834Z,94.81
2018-11-29T07:11:11.845Z,94.92
2018-11-29T07:12:11.828Z,94.19
2018-11-29T07:13:11.799Z,94.60
2018-11-29T07:14:11.785Z,94.60
2018-11-29T07:15:11.787Z,94.50
2018-11-29T07:16:11.773Z,94.60
2018-11-29T07:17:11.758Z,94.60
2018-11-29T07:18:11.760Z,94.81
2018-11-29T07:19:15.042Z,94.71
2018-11-29T07:20:11.745Z,94.40
2018-11-29T07:21:11.745Z,93.88
2018-11-29T07:22:11.714Z,94.29
2018-11-29T07:23:11.708Z,94.50
2018-11-29T07:24:11.685Z,94.81
2018-11-29T07:25:11.674Z,94.25
2018-11-29T07:26:11.664Z,94.50
2018-11-29T07:27:11.660Z,94.25
2018-11-29T07:28:11.666Z,93.68
2018-11-29T07:29:16.730Z,93.53
2018-11-29T07:30:12.620Z,94.56
2018-11-29T07:31:11.629Z,94.46
2018-11-29T07:32:11.594Z,94.04
2018-11-29T07:33:11.584Z,93.84
2018-11-29T07:34:11.603Z,93.12
2018-11-29T07:35:11.571Z,93.32
2018-11-29T07:36:11.559Z,93.22
2018-11-29T07:37:11.578Z,93.63
2018-11-29T07:38:11.535Z,93.37
2018-11-29T07:39:11.517Z,93.43
2018-11-29T07:40:11.510Z,93.43
2018-11-29T07:41:11.510Z,92.91
2018-11-29T07:42:11.484Z,93.12
2018-11-29T07:43:11.494Z,92.80
2018-11-29T07:44:11.492Z,93.12
2018-11-29T07:45:11.516Z,93.43
2018-11-29T07:46:11.445Z,92.70
2018-11-29T07:47:11.459Z,92.19
2018-11-29T07:48:11.425Z,92.40
2018-11-29T07:49:11.418Z,92.19
2018-11-29T07:50:11.408Z,92.50
2018-11-29T07:51:11.390Z,92.91
2018-11-29T07:52:11.383Z,92.80
2018-11-29T07:53:11.381Z,93.01
2018-11-29T07:54:11.357Z,92.19
2018-11-29T07:55:11.367Z,92.29
2018-11-29T07:56:11.347Z,92.50
2018-11-29T07:57:11.351Z,91.77
2018-11-29T07:58:11.332Z,92.50
2018-11-29T07:59:11.303Z,92.33
2018-11-29T08:00:11.294Z,91.77
2018-11-29T08:01:11.298Z,91.16
2018-11-29T08:02:11.292Z,91.77
2018-11-29T08:03:11.289Z,91.36
2018-11-29T08:04:11.252Z,91.46
2018-11-29T08:05:11.243Z,91.16
2018-11-29T08:06:11.228Z,91.56
2018-11-29T08:07:11.248Z,91.77
2018-11-29T08:08:11.214Z,91.46
2018-11-29T08:09:11.233Z,91.05
2018-11-29T08:10:11.197Z,91.77
2018-11-29T08:11:11.176Z,91.77
2018-11-29T08:12:11.167Z,91.46
2018-11-29T08:13:11.156Z,91.67
2018-11-29T08:14:11.146Z,91.26
2018-11-29T08:15:11.150Z,91.36
2018-11-29T08:16:11.136Z,91.09
2018-11-29T08:17:11.181Z,91.67
2018-11-29T08:18:11.099Z,91.46
2018-11-29T08:19:11.098Z,90.33
2018-11-29T08:20:11.114Z,90.74
2018-11-29T08:21:11.073Z,90.74
2018-11-29T08:22:11.067Z,90.33
2018-11-29T08:23:11.050Z,90.43
2018-11-29T08:24:11.039Z,89.86
2018-11-29T08:25:11.028Z,90.84
2018-11-29T08:26:11.029Z,91.88
2018-11-29T08:27:11.013Z,91.77
2018-11-29T08:28:11.001Z,90.53
2018-11-29T08:29:10.989Z,90.43
2018-11-29T08:30:11.018Z,90.74
2018-11-29T08:31:10.964Z,89.92
2018-11-29T08:32:10.960Z,90.33
2018-11-29T08:33:10.944Z,89.81
2018-11-29T08:34:10.944Z,90.02
2018-11-29T08:35:10.917Z,90.02
2018-11-29T08:36:10.924Z,90.02
2018-11-29T08:37:10.904Z,89.71
2018-11-29T08:38:10.919Z,90.33
2018-11-29T08:39:10.885Z,90.02
2018-11-29T08:40:10.927Z,89.71
2018-11-29T08:41:10.866Z,89.61
2018-11-29T08:42:10.862Z,90.02
2018-11-29T08:43:10.861Z,89.71
2018-11-29T08:44:10.837Z,90.22
2018-11-29T08:45:10.820Z,89.50
2018-11-29T08:46:10.818Z,89.54
2018-11-29T08:47:10.798Z,90.02
2018-11-29T08:48:10.784Z,89.92
2018-11-29T08:49:10.785Z,89.29
2018-11-29T08:50:10.758Z,89.92
2018-11-29T08:51:10.756Z,89.40
2018-11-29T08:52:10.761Z,90.22
2018-11-29T08:53:10.729Z,89.50
2018-11-29T08:54:10.723Z,89.29
2018-11-29T08:55:10.707Z,88.98
2018-11-29T08:56:10.699Z,89.09
2018-11-29T08:57:10.693Z,90.33
2018-11-29T08:58:10.674Z,89.61
2018-11-29T08:59:10.666Z,89.29
2018-11-29T09:00:10.661Z,89.40
2018-11-29T09:01:10.661Z,88.78
2018-11-29T09:02:10.644Z,88.89
2018-11-29T09:03:10.633Z,88.78
2018-11-29T09:04:10.607Z,88.26
2018-11-29T09:05:10.610Z,89.40
2018-11-29T09:06:10.612Z,88.89
2018-11-29T09:07:10.584Z,88.57
2018-11-29T09:08:10.580Z,88.57
2018-11-29T09:09:10.553Z,88.26
2018-11-29T09:10:10.545Z,88.47
2018-11-29T09:11:10.538Z,89.09
2018-11-29T09:12:10.531Z,88.68
2018-11-29T09:13:10.551Z,88.37
2018-11-29T09:14:10.524Z,87.65
2018-11-29T09:15:10.492Z,88.06
2018-11-29T09:16:10.478Z,88.37
2018-11-29T09:17:10.468Z,88.26
2018-11-29T09:18:10.465Z,87.74
2018-11-29T09:19:10.453Z,88.16
2018-11-29T09:20:10.461Z,87.23
2018-11-29T09:21:10.435Z,87.95
2018-11-29T09:22:10.417Z,88.16
2018-11-29T09:23:10.423Z,88.37
2018-11-29T09:24:10.426Z,88.57
2018-11-29T09:25:10.407Z,88.57
2018-11-29T09:26:10.379Z,88.84
2018-11-29T09:27:10.410Z,88.43
2018-11-29T09:28:10.438Z,87.74
2018-11-29T09:29:10.371Z,88.26
2018-11-29T09:30:10.369Z,87.95
2018-11-29T09:31:10.357Z,88.64
2018-11-29T09:32:10.357Z,88.02
2018-11-29T09:33:10.366Z,88.47
2018-11-29T09:34:10.291Z,87.85
2018-11-29T09:35:10.293Z,87.40
2018-11-29T09:36:10.266Z,88.16
2018-11-29T09:37:10.261Z,88.32
2018-11-29T09:38:10.266Z,88.12
2018-11-29T09:39:10.260Z,87.29
2018-11-29T09:40:10.231Z,87.65
2018-11-29T09:41:10.215Z,86.88
2018-11-29T09:42:10.212Z,86.78
2018-11-29T09:43:10.206Z,86.98
2018-11-29T09:44:10.204Z,87.81
2018-11-29T09:45:10.176Z,88.16
2018-11-29T09:46:10.165Z,88.02
2018-11-29T09:47:10.152Z,87.81
2018-11-29T09:48:10.148Z,88.26
2018-11-29T09:49:10.128Z,87.74
2018-11-29T09:50:10.129Z,88.16
2018-11-29T09:51:10.112Z,88.12
2018-11-29T09:52:10.126Z,87.81
2018-11-29T09:53:10.096Z,88.64
2018-11-29T09:54:10.076Z,88.02
2018-11-29T09:55:10.104Z,88.22
2018-11-29T09:56:10.059Z,88.89
2018-11-29T09:57:10.062Z,88.16
2018-11-29T09:58:10.039Z,87.95
2018-11-29T09:59:10.093Z,88.98
2018-11-29T10:00:10.049Z,88.22
2018-11-29T10:01:10.024Z,87.71
2018-11-29T10:02:10.054Z,87.50
2018-11-29T10:03:10.046Z,87.92
2018-11-29T10:04:09.988Z,87.71
2018-11-29T10:05:10.008Z,87.50
2018-11-29T10:06:09.952Z,86.47
2018-11-29T10:07:09.946Z,87.19
2018-11-29T10:08:12.084Z,87.19
2018-11-29T10:09:09.952Z,87.29
2018-11-29T10:10:09.906Z,87.29
2018-11-29T10:11:09.901Z,87.08
2018-11-29T10:12:09.879Z,88.22
2018-11-29T10:13:09.873Z,87.71
2018-11-29T10:14:09.863Z,87.92
2018-11-29T10:15:09.964Z,87.08
2018-11-29T10:16:09.920Z,87.60
2018-11-29T10:17:10.017Z,86.98
2018-11-29T10:18:09.854Z,86.88
2018-11-29T10:19:09.808Z,87.19
2018-11-29T10:20:09.802Z,87.19
2018-11-29T10:21:09.801Z,87.15
2018-11-29T10:22:09.790Z,87.29
2018-11-29T10:23:09.775Z,87.05
2018-11-29T10:24:09.766Z,86.16
2018-11-29T10:25:09.763Z,86.63
2018-11-29T10:26:09.733Z,87.66
2018-11-29T10:27:09.744Z,86.78
2018-11-29T10:28:09.718Z,86.32
2018-11-29T10:29:09.723Z,87.19
2018-11-29T10:30:09.692Z,86.53
2018-11-29T10:31:09.679Z,86.98
2018-11-29T10:32:09.688Z,86.32
2018-11-29T10:33:09.655Z,87.08
2018-11-29T10:34:09.646Z,86.53
2018-11-29T10:35:09.641Z,86.16
2018-11-29T10:36:09.641Z,86.12
2018-11-29T10:37:09.629Z,86.84
2018-11-29T10:38:09.607Z,87.05
2018-11-29T10:39:09.594Z,86.68
2018-11-29T10:40:09.585Z,87.66
2018-11-29T10:41:09.577Z,86.63
2018-11-29T10:42:09.583Z,86.53
2018-11-29T10:43:09.565Z,85.81
2018-11-29T10:44:09.541Z,86.74
2018-11-29T10:45:09.529Z,86.36
2018-11-29T10:46:09.552Z,86.63
2018-11-29T10:47:09.510Z,86.53
2018-11-29T10:48:09.522Z,86.53
2018-11-29T10:49:09.492Z,86.32
2018-11-29T10:50:09.492Z,86.43
2018-11-29T10:51:09.478Z,86.63
2018-11-29T10:52:09.451Z,86.02
2018-11-29T10:53:09.443Z,86.05
2018-11-29T10:54:09.448Z,86.43
2018-11-29T10:55:09.425Z,86.32
2018-11-29T10:56:09.438Z,86.53
2018-11-29T10:57:09.398Z,86.22
2018-11-29T10:58:09.397Z,86.53
2018-11-29T10:59:09.383Z,86.94
2018-11-29T11:00:09.386Z,86.84
2018-11-29T11:01:09.377Z,86.74
2018-11-29T11:02:09.359Z,87.77
2018-11-29T11:03:09.339Z,87.15
2018-11-29T11:04:09.323Z,87.05
2018-11-29T11:05:09.313Z,87.15
2018-11-29T11:06:09.316Z,87.15
2018-11-29T11:07:09.298Z,87.87
2018-11-29T11:08:09.296Z,87.26
2018-11-29T11:09:09.280Z,87.15
2018-11-29T11:10:09.264Z,87.15
2018-11-29T11:11:09.278Z,87.26
2018-11-29T11:12:09.237Z,87.05
2018-11-29T11:13:09.239Z,87.35
2018-11-29T11:14:09.261Z,87.15
2018-11-29T11:15:09.228Z,87.46
2018-11-29T11:16:09.929Z,87.98
2018-11-29T11:17:09.184Z,88.29
2018-11-29T11:18:09.186Z,87.98
2018-11-29T11:19:09.169Z,88.18
2018-11-29T11:20:09.160Z,87.98
2018-11-29T11:21:09.162Z,88.80
2018-11-29T11:22:09.141Z,88.39
2018-11-29T11:23:09.127Z,88.59
2018-11-29T11:24:09.111Z,88.29
2018-11-29T11:25:09.104Z,87.83
2018-11-29T11:26:09.103Z,87.77
2018-11-29T11:27:09.087Z,88.18
2018-11-29T11:28:09.093Z,87.66
2018-11-29T11:29:09.080Z,88.08
2018-11-29T11:30:09.055Z,87.56
2018-11-29T11:31:09.228Z,87.77
2018-11-29T11:32:09.077Z,87.46
2018-11-29T11:33:09.052Z,88.18
2018-11-29T11:34:09.040Z,87.66
2018-11-29T11:35:09.144Z,87.83
2018-11-29T11:36:08.983Z,87.05
2018-11-29T11:37:09.033Z,87.05
2018-11-29T11:38:08.969Z,87.87
2018-11-29T11:39:08.957Z,87.35
2018-11-29T11:40:08.958Z,87.35
2018-11-29T11:41:08.951Z,86.84
2018-11-29T11:42:08.938Z,87.05
2018-11-29T11:43:08.929Z,86.63
2018-11-29T11:44:08.896Z,87.15
2018-11-29T11:45:08.924Z,87.56
2018-11-29T11:46:08.880Z,87.66
2018-11-29T11:47:08.889Z,87.56
2018-11-29T11:48:08.853Z,86.43
2018-11-29T11:49:08.867Z,87.05
2018-11-29T11:50:10.813Z,86.94
2018-11-29T11:51:08.839Z,87.66
2018-11-29T11:52:09.031Z,87.15
2018-11-29T11:53:08.809Z,88.18
2018-11-29T11:54:08.796Z,87.05
2018-11-29T11:55:08.804Z,87.15
2018-11-29T11:56:08.785Z,86.63
2018-11-29T11:57:08.813Z,87.15
2018-11-29T11:58:08.765Z,87.26
2018-11-29T11:59:08.769Z,86.84
2018-11-29T12:00:08.779Z,86.53
2018-11-29T12:01:08.715Z,87.29
2018-11-29T12:02:08.747Z,87.19
2018-11-29T12:03:08.701Z,87.08
2018-11-29T12:04:08.719Z,87.08
2018-11-29T12:05:08.721Z,88.02
2018-11-29T12:06:08.690Z,87.19
2018-11-29T12:07:08.695Z,87.40
2018-11-29T12:08:08.641Z,87.19
2018-11-29T12:09:08.632Z,86.94
2018-11-29T12:10:08.642Z,87.81
2018-11-29T12:11:08.627Z,87.77
2018-11-29T12:12:08.615Z,88.39
2018-11-29T12:13:08.611Z,87.77
2018-11-29T12:14:08.584Z,87.56
2018-11-29T12:15:08.608Z,88.43
2018-11-29T12:16:08.555Z,88.02
2018-11-29T12:17:08.571Z,88.18
2018-11-29T12:18:08.546Z,88.39
2018-11-29T12:19:08.552Z,87.98
2018-11-29T12:20:08.528Z,88.02
2018-11-29T12:21:08.533Z,87.81
2018-11-29T12:22:08.558Z,87.19
2018-11-29T12:23:08.486Z,87.35
2018-11-29T12:24:08.558Z,87.29
2018-11-29T12:25:08.481Z,87.35
2018-11-29T12:26:10.015Z,87.40
2018-11-29T12:27:08.445Z,87.71
2018-11-29T12:28:08.437Z,88.08
2018-11-29T12:29:08.426Z,88.02
2018-11-29T12:30:08.408Z,88.12
2018-11-29T12:31:08.400Z,88.53
2018-11-29T12:32:08.398Z,88.64
2018-11-29T12:33:08.422Z,88.84
2018-11-29T12:34:08.377Z,88.95
2018-11-29T12:35:08.362Z,88.74
2018-11-29T12:36:08.350Z,88.95
2018-11-29T12:37:08.347Z,88.64
2018-11-29T12:38:08.336Z,88.39
2018-11-29T12:39:08.373Z,88.64
2018-11-29T12:40:08.316Z,88.70
2018-11-29T12:41:08.291Z,89.94
2018-11-29T12:42:08.300Z,89.62
2018-11-29T12:43:08.280Z,89.32
2018-11-29T12:44:08.264Z,89.52
2018-11-29T12:45:08.264Z,89.32
2018-11-29T12:46:08.268Z,88.39
2018-11-29T12:47:08.227Z,89.01
2018-11-29T12:48:08.213Z,88.14
2018-11-29T12:49:08.224Z,88.04
2018-11-29T12:50:08.224Z,88.39
2018-11-29T12:51:08.189Z,88.49
2018-11-29T12:52:08.173Z,88.59